x

Shelikof Strait, Ak (46077) Wave Buoy

3:50pm - Wed 1st Oct 2014 All times are AKDT. -8 hours from GMT.

  • Sig Wave height 3.6ft
  • Peak Period 4s
  • Average Period 4s
  • Wind
    22mph, 27mph gusts
  • Sea Temp 51°f
  • Air Temp 51°f
  • Sea Pressure 1019.7mb
  • Shelikof  Strait, Ak
  • Shelikof  Strait, Ak

More Historic Weather Station data

Upgrade to MSW Pro to gain access to the past 30 days of data for over 8000 Wavebouys and Weather Stations around the globe.

Join Pro

Comparision Forecast

View Surf forecast
   
Wed 10/01 3:50pm 3.5ft 4s 4s 22 27 mph 1019.7mb 51f 51f
2:50pm 3.5ft 4s 4s 25 29 mph 1020mb 51f 51f
1:50pm 3ft 3s 3s 25 31 mph 1020.6mb 51f 51f
12:50pm 2.5ft 5s 3s 22 27 mph 1021.1mb 51f 49f
11:50am 2.5ft 4s 3s 20 22 mph 1021.6mb 51f 49f
10:50am 3ft 4s 3s 20 22 mph 1021.5mb 51f 49f
9:50am 2.5ft 3s 3s 25 29 mph 1021.2mb 51f 50f
8:50am 2.5ft 3s 3s 22 27 mph 1021.5mb 51f 49f
7:50am 2ft 3s 3s 20 27 mph 1021.7mb 51f 50f
6:50am 1.6ft 3s 3s 20 25 mph 1022.1mb 51f 50f
5:50am 1ft 9s 3s 20 25 mph 1022.8mb 51f 50f
4:50am 1ft 10s 3s 13 16 mph 1023.5mb 51f 49f
3:50am 1.3ft 3s 3s 13 16 mph 1023.6mb 51f 50f
2:50am 1ft 3s 3s 13 16 mph 1023.5mb 51f 50f
1:50am 0.7ft  -  4s 13 16 mph 1023.3mb 51f 50f
12:50am 0.7ft  -  4s 11 13 mph 1023.1mb 51f 50f
Tue 09/30 11:50pm 1ft 11s 6s 9 11 mph 1023.2mb 51f 50f
10:50pm 1ft 11s 6s 2
mph
1023.2mb 51f 50f
9:50pm 1ft 10s 6s 2 4 mph 1023.2mb 51f 51f
8:50pm 1ft 11s 5s  -  2 mph 1022.8mb 52f 51f
7:50pm 0.7ft  -  5s 4
mph
1022.6mb 52f 51f
6:50pm 0.7ft  -  4s  -  mph 1022.7mb 52f 53f
5:50pm 1ft 11s 4s 4 7 mph 1022.6mb 53f 51f
4:50pm 1ft 5s 4s 4
mph
1022.7mb 53f 51f
3:50pm 1ft 11s 4s 4 7 mph 1023.2mb 52f 51f
2:50pm 1ft 5s 4s 4
mph
1023.8mb 52f 51f
1:50pm 1ft 5s 4s 4
mph
1024.2mb 51f 50f
12:50pm 1ft 4s 4s 7
mph
1024.2mb 51f 49f
11:50am 1.3ft 4s 3s 7 9 mph 1024.1mb 52f 49f
10:50am 1.6ft 4s 3s 9
mph
1023.7mb 52f 49f
9:50am 2ft 3s 3s 7 11 mph 1023.2mb 52f 49f
8:50am 2.5ft 5s 3s 11 16 mph 1022.7mb 52f 47f
7:50am 2.5ft 3s 3s 13 16 mph 1022.2mb 52f 48f
6:50am 2.5ft 3s 3s 16 18 mph 1021.9mb 52f 47f
5:50am 2.5ft 3s 3s 13 16 mph 1021.8mb 52f 48f
4:50am 1.6ft 4s 3s 11 16 mph 1021.5mb 52f 50f
3:50am 2ft 5s 4s 11 13 mph 1021.5mb 52f 52f
2:50am 2ft 4s 4s 9 11 mph 1021.4mb 52f 51f
1:50am 2ft 4s 4s 11 13 mph 1021.3mb 52f 51f
12:50am 2.5ft 5s 4s 7
mph
1021mb 53f 51f
Mon 09/29 11:50pm 2.5ft 4s 4s 4 7 mph 1020.1mb 53f 51f
10:50pm 2ft 5s 4s 11 13 mph 1019.5mb 53f 51f
8:50pm 2.5ft 5s 4s 18 22 mph 1017.5mb 53f 52f
7:50pm 2.5ft 5s 4s 11 13 mph 1017.5mb 53f 52f
6:50pm 2.5ft 5s 4s 9 11 mph 1016.9mb 53f 52f
5:50pm 3ft 5s 4s 2 4 mph 1016.5mb 53f 52f
4:50pm 3.5ft 6s 4s  -  mph 1016.2mb 53f 53f
3:50pm 3.5ft 6s 4s 9
mph
1015.6mb 53f 51f
2:50pm 3.5ft 5s 4s 11 13 mph 1015.1mb 53f 51f
1:50pm 4ft 6s 4s 18 22 mph 1014.6mb 53f 51f
12:50pm 4.5ft 6s 5s 16 20 mph 1014.1mb 53f 51f
11:50am 4ft 6s 5s 13 18 mph 1013.4mb 53f 51f
10:50am 4.5ft 6s 5s 9 11 mph 1012.8mb 53f 53f
9:50am 5ft 6s 5s 9 11 mph 1012.1mb 53f 53f
8:50am 4.5ft 6s 5s 11 16 mph 1011.4mb 53f 53f
7:50am 3.5ft 6s 5s 16 20 mph 1011.2mb 53f 53f
6:50am 3.5ft 6s 5s 16 18 mph 1010.9mb 53f 53f
5:50am 3.5ft 6s 5s 20 25 mph 1010.2mb 53f 53f
4:50am 3ft 6s 4s 13 20 mph 1010.1mb 53f 54f
3:50am 3.5ft 5s 4s 11 16 mph 1009.7mb 53f 55f
2:50am 4ft 6s 5s 7 9 mph 1009.9mb 53f 54f
1:50am 3.5ft 6s 5s 11 13 mph 1009.9mb 53f 54f
12:50am 3.5ft 6s 4s 16 18 mph 1009.4mb 53f 55f
Sun 09/28 11:50pm 4ft 6s 4s 11 16 mph 1009.2mb 53f 55f
10:50pm 3.5ft 6s 4s 16 20 mph 1008.7mb 53f 55f
9:50pm 3.5ft 6s 4s 11 16 mph 1008.2mb 53f 55f
8:50pm 4ft 6s 5s 20 25 mph 1007.3mb 53f 55f
7:50pm 3.5ft 6s 5s 20 27 mph 1006.4mb 53f 56f
6:50pm 3.5ft 7s 5s 11 13 mph 1006.3mb 53f 56f
5:50pm 3ft 5s 5s 4
mph
1006mb 53f 56f
4:50pm 3ft 6s 5s 11 13 mph 1005.3mb 53f 56f
3:50pm 2.5ft 6s 5s 9 11 mph 1005.4mb 53f 56f
2:50pm 2.5ft 4s 4s 4 9 mph 1005.5mb 53f 54f
1:50pm 2.5ft 6s 4s 7 9 mph 1005.2mb 53f 53f
12:50pm 3.5ft 5s 4s  -  2 mph 1005.3mb 53f 53f
11:50am 3.5ft 5s 5s 7 9 mph 1005.1mb 53f 52f
10:50am 3ft 5s 5s 9 11 mph 1004.5mb 53f 52f
9:50am 2.5ft 6s 4s 4
mph
1004.4mb 53f 52f
8:50am 2ft 5s 4s 2 4 mph 1004.1mb 53f 52f
7:50am 2ft 5s 4s 2 4 mph 1003.1mb 53f 51f
6:50am 2.5ft 7s 5s  -  2 mph 1002.7mb 53f 52f
5:50am 2.5ft 5s 5s 2
mph
1002.1mb 53f 51f
4:50am 2.5ft 5s 4s 4
mph
1001.7mb 53f 52f
3:50am 2.5ft 5s 4s  -  mph 1001.7mb 53f 52f
2:50am 2ft 5s 4s 4 7 mph 1001.2mb 53f 53f
1:50am 1.6ft 4s 4s 2 4 mph 1001.5mb 53f 52f